M I D A S
Marine Information and Data Acquisition System
Tripno 361 of the Zeeleeuw from 2002-11-20 07:24:24 to 2002-11-20 17:15:09
Back to CruiseResearch ActivitiesStationsMapUnderway DataData graphs

EquipmentUnitsComments
TimeDGPSUTC
LatitudeDGPSDM.mWGS84
LongitudeDGPSDM.mWGS84
SpeedMeteo Stationm/sRelative wind speed
DirectionMeteo StationdegRelative wind direction
TemperatureMeteo Stationdeg CelciusAir temperature
PressureMeteo StationPaAtmospheric pressure
HumidityMeteo Station%Relative humidity
Missing or incorrect values are displayed as -999
Metereological data collected by the RV Zeeleeuw from 2002-11-20 07:24:24 to 2002-11-20 17:15:09
                                                                                    Next 1000 lines
Time Latitude Longitude Speed Direction Temperature Pressure Humidity
2002-11-20 07:24:32 51°14.401 2°55.028 3.4 203 7 100860 87
2002-11-20 07:24:38 51°14.412 2°55.009 2.8 218 7 100860 87
2002-11-20 07:24:43 51°14.421 2°54.993 2.5 196 7 100860 87
2002-11-20 07:24:48 51°14.43 2°54.977 2.4 186 7 100860 87
2002-11-20 07:24:53 51°14.439 2°54.959 2.8 193 7 100860 87
2002-11-20 07:24:58 51°14.449 2°54.941 2.4 195 7 100860 87
2002-11-20 07:25:03 51°14.46 2°54.923 2.3 190 7 100860 87
2002-11-20 07:25:08 51°14.471 2°54.906 2.6 203 7 100860 87
2002-11-20 07:25:13 51°14.482 2°54.889 3 194 7 100860 87
2002-11-20 07:25:18 51°14.494 2°54.872 3.2 192 7 100860 87
2002-11-20 07:25:23 51°14.507 2°54.856 3 198 7.1 100860 87
2002-11-20 07:25:28 51°14.52 2°54.84 3.6 196 7.1 100860 87
2002-11-20 07:25:32 51°14.53 2°54.827 3.4 192 7 100860 87
2002-11-20 07:25:38 51°14.546 2°54.808 3 189 7 100860 87
2002-11-20 07:25:43 51°14.56 2°54.793 3.1 183 7.1 100860 87
2002-11-20 07:25:48 51°14.574 2°54.777 3.5 181 7.1 100860 87
2002-11-20 07:25:53 51°14.587 2°54.762 3.4 171 7.1 100860 87
2002-11-20 07:25:58 51°14.601 2°54.746 3.8 193 7.1 100860 87
2002-11-20 07:26:04 51°14.617 2°54.727 3.9 190 7.1 100860 87
2002-11-20 07:26:08 51°14.628 2°54.714 4.1 170 7.1 100860 87
2002-11-20 07:26:14 51°14.644 2°54.694 3.7 166 7.1 100860 87
2002-11-20 07:26:18 51°14.655 2°54.681 3.4 168 7.1 100860 87
2002-11-20 07:26:23 51°14.669 2°54.664 3.5 173 7.1 100860 87
2002-11-20 07:26:28 51°14.682 2°54.648 4 179 7.1 100860 87
2002-11-20 07:26:33 51°14.696 2°54.632 4.2 180 7.1 100860 87
2002-11-20 07:26:38 51°14.71 2°54.616 3.6 179 7.1 100860 87
2002-11-20 07:26:43 51°14.724 2°54.6 3.6 184 7.1 100860 87
2002-11-20 07:26:48 51°14.738 2°54.584 3.6 172 7.1 100860 87
2002-11-20 07:26:54 51°14.754 2°54.565 3.4 183 7.1 100860 87
2002-11-20 07:26:58 51°14.765 2°54.552 3.6 177 7.1 100860 87
2002-11-20 07:27:04 51°14.781 2°54.532 3.6 180 7.1 100860 87
2002-11-20 07:27:08 51°14.793 2°54.519 3.5 177 7.1 100860 87
2002-11-20 07:27:14 51°14.809 2°54.499 3.9 176 7.1 100860 87
2002-11-20 07:27:18 51°14.82 2°54.486 4.8 167 7.1 100860 87
2002-11-20 07:27:24 51°14.836 2°54.467 4.6 170 7.1 100860 87
2002-11-20 07:27:28 51°14.847 2°54.454 4.8 172 7.1 100860 87
2002-11-20 07:27:33 51°14.861 2°54.44 5.2 178 7.2 100860 87
2002-11-20 07:27:38 51°14.875 2°54.425 4.9 164 7.2 100860 87
2002-11-20 07:27:43 51°14.89 2°54.41 4.1 168 7.2 100860 88
2002-11-20 07:27:48 51°14.904 2°54.396 5.1 173 7.2 100860 88
2002-11-20 07:27:52 51°14.916 2°54.385 5.6 165 7.2 100850 87
2002-11-20 07:27:58 51°14.933 2°54.369 4.7 168 7.2 100850 87
2002-11-20 07:28:03 51°14.947 2°54.355 4.7 168 7.2 100860 87
2002-11-20 07:28:08 51°14.961 2°54.341 4 174 7.2 100860 87
2002-11-20 07:28:14 51°14.978 2°54.324 3.6 163 7.2 100860 87
2002-11-20 07:28:18 51°14.989 2°54.312 4.9 168 7.2 100860 87
2002-11-20 07:28:23 51°15.003 2°54.297 5.1 161 7.2 100850 87
2002-11-20 07:28:28 51°15.017 2°54.282 4.3 159 7.2 100850 87
2002-11-20 07:28:34 51°15.033 2°54.265 5.2 175 7.2 100860 87
2002-11-20 07:28:38 51°15.044 2°54.253 4.4 171 7.2 100860 87
2002-11-20 07:28:44 51°15.061 2°54.236 4.4 163 7.2 100860 87
2002-11-20 07:28:48 51°15.072 2°54.224 3.9 157 7.2 100860 87
2002-11-20 07:28:53 51°15.087 2°54.21 4.1 165 7.2 100860 87
2002-11-20 07:28:58 51°15.101 2°54.196 3.6 170 7.2 100860 87
2002-11-20 07:29:03 51°15.115 2°54.182 3.6 167 7.3 100860 87
2002-11-20 07:29:08 51°15.129 2°54.167 4.7 166 7.3 100860 87
2002-11-20 07:29:12 51°15.141 2°54.156 4.4 164 7.3 100850 87
2002-11-20 07:29:18 51°15.158 2°54.138 4.1 163 7.3 100850 87
2002-11-20 07:29:24 51°15.175 2°54.12 3.9 168 7.3 100860 87
2002-11-20 07:29:28 51°15.186 2°54.108 4.4 174 7.3 100860 87
2002-11-20 07:29:34 51°15.203 2°54.089 5.2 168 7.3 100850 87
2002-11-20 07:29:38 51°15.214 2°54.077 4.8 161 7.3 100850 87
2002-11-20 07:29:43 51°15.228 2°54.061 5.5 164 7.3 100850 87
2002-11-20 07:29:48 51°15.243 2°54.046 5.1 172 7.3 100850 87
2002-11-20 07:29:52 51°15.254 2°54.034 5 163 7.3 100850 87
2002-11-20 07:29:58 51°15.271 2°54.016 4.2 162 7.3 100850 87
2002-11-20 07:30:03 51°15.286 2°54.001 4.4 168 7.3 100850 87
2002-11-20 07:30:08 51°15.3 2°53.987 4.8 177 7.3 100850 87
2002-11-20 07:30:14 51°15.317 2°53.969 5.6 172 7.3 100850 87
2002-11-20 07:30:18 51°15.328 2°53.956 4.5 163 7.3 100850 87
2002-11-20 07:30:24 51°15.346 2°53.938 4.7 160 7.4 100850 87
2002-11-20 07:30:28 51°15.357 2°53.925 5 160 7.4 100850 87
2002-11-20 07:30:33 51°15.371 2°53.91 4.5 158 7.4 100850 87
2002-11-20 07:30:38 51°15.385 2°53.894 4.5 153 7.4 100850 87
2002-11-20 07:30:43 51°15.399 2°53.879 4.2 151 7.4 100850 87
2002-11-20 07:30:48 51°15.414 2°53.864 4.2 160 7.4 100850 87
2002-11-20 07:30:53 51°15.428 2°53.85 3.7 162 7.4 100850 87
2002-11-20 07:30:58 51°15.442 2°53.835 4.3 168 7.4 100850 87
2002-11-20 07:31:03 51°15.456 2°53.82 4.6 154 7.4 100850 87
2002-11-20 07:31:08 51°15.471 2°53.804 4.5 160 7.4 100850 87
2002-11-20 07:31:13 51°15.485 2°53.789 4 159 7.4 100850 87
2002-11-20 07:31:18 51°15.499 2°53.772 4.3 163 7.4 100850 87
2002-11-20 07:31:23 51°15.513 2°53.757 4.3 162 7.4 100850 87
2002-11-20 07:31:28 51°15.527 2°53.741 5.4 156 7.4 100850 87
2002-11-20 07:31:32 51°15.538 2°53.729 4.9 159 7.4 100850 87
2002-11-20 07:31:38 51°15.555 2°53.71 6.1 170 7.4 100850 87
2002-11-20 07:31:43 51°15.569 2°53.695 4.8 164 7.4 100850 87
2002-11-20 07:31:48 51°15.583 2°53.68 5.9 163 7.4 100850 87
2002-11-20 07:31:53 51°15.598 2°53.665 5.7 157 7.4 100850 87
2002-11-20 07:31:58 51°15.612 2°53.65 4.7 159 7.4 100850 87
2002-11-20 07:32:03 51°15.626 2°53.635 5.4 154 7.4 100850 87
2002-11-20 07:32:08 51°15.64 2°53.619 5.4 149 7.4 100850 87
2002-11-20 07:32:12 51°15.651 2°53.607 5.3 151 7.5 100850 87
2002-11-20 07:32:18 51°15.668 2°53.588 3.7 156 7.5 100850 87
2002-11-20 07:32:23 51°15.683 2°53.572 4 156 7.5 100850 87
2002-11-20 07:32:28 51°15.697 2°53.556 4.4 169 7.5 100850 87
2002-11-20 07:32:32 51°15.709 2°53.543 4.4 165 7.5 100850 87
2002-11-20 07:32:38 51°15.726 2°53.524 6 163 7.5 100850 87
2002-11-20 07:32:43 51°15.741 2°53.508 5.5 163 7.5 100850 87
2002-11-20 07:32:48 51°15.757 2°53.492 4.6 167 7.5 100850 87
2002-11-20 07:32:53 51°15.772 2°53.475 4.6 160 7.5 100850 87
2002-11-20 07:32:58 51°15.787 2°53.459 4.5 168 7.5 100850 87
2002-11-20 07:33:03 51°15.803 2°53.442 4.6 173 7.5 100850 87
2002-11-20 07:33:08 51°15.819 2°53.425 5.3 167 7.5 100850 87
2002-11-20 07:33:12 51°15.831 2°53.411 5.8 167 7.6 100850 87
2002-11-20 07:33:18 51°15.85 2°53.391 5.2 163 7.6 100850 87
2002-11-20 07:33:23 51°15.866 2°53.375 5.2 166 7.6 100850 87
2002-11-20 07:33:28 51°15.883 2°53.36 5.1 173 7.6 100850 87
2002-11-20 07:33:33 51°15.899 2°53.343 5.2 172 7.6 100850 87
2002-11-20 07:33:38 51°15.915 2°53.328 5.2 162 7.6 100850 87
2002-11-20 07:33:43 51°15.932 2°53.312 5.2 170 7.6 100850 87
2002-11-20 07:33:48 51°15.948 2°53.296 5.8 166 7.6 100850 87
2002-11-20 07:33:52 51°15.961 2°53.283 5.7 154 7.6 100850 87
2002-11-20 07:33:58 51°15.981 2°53.264 4.1 152 7.6 100850 87
2002-11-20 07:34:03 51°15.998 2°53.247 4.5 161 7.6 100850 87
2002-11-20 07:34:08 51°16.014 2°53.231 4.7 161 7.6 100850 87
2002-11-20 07:34:14 51°16.034 2°53.212 4.3 161 7.6 100850 87
2002-11-20 07:34:18 51°16.047 2°53.199 4.6 158 7.6 100850 87
2002-11-20 07:34:23 51°16.063 2°53.183 4.8 156 7.6 100850 87
2002-11-20 07:34:28 51°16.08 2°53.168 5.7 174 7.6 100850 87
2002-11-20 07:34:33 51°16.097 2°53.152 4.7 154 7.6 100850 87
2002-11-20 07:34:38 51°16.113 2°53.136 5.3 170 7.6 100850 87
2002-11-20 07:34:43 51°16.129 2°53.12 5.3 169 7.6 100850 87
2002-11-20 07:34:48 51°16.146 2°53.104 5.6 172 7.6 100850 87
2002-11-20 07:34:53 51°16.162 2°53.088 5.7 153 7.6 100850 87
2002-11-20 07:34:58 51°16.179 2°53.072 4.9 156 7.6 100850 87
2002-11-20 07:35:04 51°16.199 2°53.053 5.6 154 7.6 100850 87
2002-11-20 07:35:08 51°16.212 2°53.041 5.2 157 7.6 100850 87
2002-11-20 07:35:13 51°16.228 2°53.025 4.9 162 7.6 100840 87
2002-11-20 07:35:18 51°16.245 2°53.009 5.5 164 7.6 100840 87
2002-11-20 07:35:23 51°16.262 2°52.995 5.7 171 7.6 100850 87
2002-11-20 07:35:28 51°16.278 2°52.98 5.4 158 7.6 100850 87
2002-11-20 07:35:32 51°16.292 2°52.97 5.2 163 7.7 100850 87
2002-11-20 07:35:38 51°16.313 2°52.953 6.1 169 7.7 100850 87
2002-11-20 07:35:43 51°16.33 2°52.94 6.8 179 7.7 100850 87
2002-11-20 07:35:48 51°16.347 2°52.927 5.1 160 7.7 100850 87
2002-11-20 07:35:54 51°16.368 2°52.911 6.1 178 7.7 100850 87
2002-11-20 07:35:58 51°16.381 2°52.901 5.7 161 7.7 100850 87
2002-11-20 07:36:03 51°16.398 2°52.887 5.5 160 7.7 100850 87
2002-11-20 07:36:08 51°16.416 2°52.874 6 158 7.7 100850 87
2002-11-20 07:36:13 51°16.433 2°52.86 5.6 158 7.7 100840 87
2002-11-20 07:36:18 51°16.449 2°52.848 5.4 176 7.7 100840 87
2002-11-20 07:36:23 51°16.466 2°52.835 5.5 166 7.7 100850 87
2002-11-20 07:36:28 51°16.483 2°52.822 6 167 7.7 100850 87
2002-11-20 07:36:33 51°16.5 2°52.809 5.9 160 7.7 100850 87
2002-11-20 07:36:38 51°16.517 2°52.796 5.4 158 7.7 100850 87
2002-11-20 07:36:43 51°16.535 2°52.783 6.3 165 7.7 100850 87
2002-11-20 07:36:48 51°16.552 2°52.77 5.5 154 7.7 100850 87
2002-11-20 07:36:52 51°16.566 2°52.759 6.1 169 7.7 100840 87
2002-11-20 07:36:58 51°16.586 2°52.743 5.9 162 7.7 100840 87
2002-11-20 07:37:04 51°16.606 2°52.726 6 161 7.7 100850 86
2002-11-20 07:37:08 51°16.619 2°52.716 5.7 157 7.7 100850 86
2002-11-20 07:37:14 51°16.64 2°52.701 6.4 153 7.7 100850 86
2002-11-20 07:37:18 51°16.654 2°52.693 6.8 164 7.7 100850 86
2002-11-20 07:37:24 51°16.675 2°52.68 6.7 162 7.7 100850 86
2002-11-20 07:37:28 51°16.689 2°52.673 6.8 166 7.7 100850 86
2002-11-20 07:37:33 51°16.706 2°52.664 6.5 170 7.7 100840 86
2002-11-20 07:37:38 51°16.723 2°52.655 7.7 178 7.7 100840 86
2002-11-20 07:37:43 51°16.741 2°52.646 8.1 169 7.7 100850 86
2002-11-20 07:37:48 51°16.758 2°52.638 7.1 164 7.7 100850 86
2002-11-20 07:37:52 51°16.772 2°52.632 7.8 162 7.7 100840 86
2002-11-20 07:37:58 51°16.792 2°52.622 6.1 162 7.7 100840 86
2002-11-20 07:38:04 51°16.813 2°52.613 6.1 161 7.8 100840 86
2002-11-20 07:38:08 51°16.826 2°52.607 7.4 166 7.8 100840 86
2002-11-20 07:38:14 51°16.847 2°52.596 7.2 163 7.8 100840 86
2002-11-20 07:38:18 51°16.86 2°52.589 6.6 164 7.8 100840 86
2002-11-20 07:38:24 51°16.881 2°52.578 6 158 7.8 100840 86
2002-11-20 07:38:28 51°16.895 2°52.57 6.3 158 7.8 100840 86
2002-11-20 07:38:33 51°16.911 2°52.56 5.6 155 7.8 100840 86
2002-11-20 07:38:38 51°16.928 2°52.551 6.2 174 7.8 100840 86
2002-11-20 07:38:43 51°16.945 2°52.542 6.7 169 7.8 100840 86
2002-11-20 07:38:48 51°16.962 2°52.533 6.3 163 7.8 100840 86
2002-11-20 07:38:52 51°16.976 2°52.526 5.8 164 7.8 100840 86
2002-11-20 07:38:58 51°16.997 2°52.517 7.2 174 7.8 100840 86
2002-11-20 07:39:04 51°17.018 2°52.507 7.6 164 7.8 100840 86
2002-11-20 07:39:08 51°17.031 2°52.5 6.8 156 7.8 100840 86
2002-11-20 07:39:14 51°17.052 2°52.49 6.4 156 7.8 100840 86
2002-11-20 07:39:18 51°17.065 2°52.483 5.9 164 7.8 100840 86
2002-11-20 07:39:24 51°17.086 2°52.472 5.8 163 7.8 100840 86
2002-11-20 07:39:28 51°17.1 2°52.464 6.5 175 7.8 100840 86
2002-11-20 07:39:34 51°17.12 2°52.453 5.9 173 7.8 100840 86
2002-11-20 07:39:38 51°17.134 2°52.445 6.4 161 7.8 100840 86
2002-11-20 07:39:43 51°17.151 2°52.436 5.8 159 7.8 100840 86
2002-11-20 07:39:48 51°17.168 2°52.426 6.3 167 7.8 100840 86
2002-11-20 07:39:52 51°17.182 2°52.419 6 163 7.8 100840 86
2002-11-20 07:39:58 51°17.202 2°52.409 7.3 171 7.8 100840 86
2002-11-20 07:40:04 51°17.223 2°52.398 6.4 163 7.8 100840 86
2002-11-20 07:40:08 51°17.237 2°52.392 8 160 7.8 100840 86
2002-11-20 07:40:14 51°17.258 2°52.382 8.1 160 7.9 100840 86
2002-11-20 07:40:18 51°17.272 2°52.374 6 158 7.9 100840 86
2002-11-20 07:40:24 51°17.293 2°52.364 6.3 172 7.9 100840 86
2002-11-20 07:40:28 51°17.307 2°52.356 6.9 173 7.9 100840 86
2002-11-20 07:40:32 51°17.321 2°52.349 6.7 166 7.9 100840 86
2002-11-20 07:40:39 51°17.345 2°52.336 6.7 167 7.9 100840 86
2002-11-20 07:40:43 51°17.359 2°52.329 6.7 163 7.9 100840 86
2002-11-20 07:40:48 51°17.378 2°52.322 7.5 165 7.9 100840 86
2002-11-20 07:40:52 51°17.392 2°52.317 8.7 163 7.9 100830 86
2002-11-20 07:40:58 51°17.414 2°52.311 7.6 162 7.9 100830 86
2002-11-20 07:41:04 51°17.435 2°52.306 6.2 161 7.9 100830 86
2002-11-20 07:41:08 51°17.45 2°52.303 8.2 169 7.9 100830 86
2002-11-20 07:41:14 51°17.471 2°52.299 8.9 171 7.9 100830 86
2002-11-20 07:41:18 51°17.486 2°52.296 7 172 7.9 100830 86
2002-11-20 07:41:23 51°17.503 2°52.293 8.6 169 7.9 100830 86
2002-11-20 07:41:28 51°17.521 2°52.291 9 170 7.9 100830 86
2002-11-20 07:41:32 51°17.536 2°52.289 8.9 167 7.9 100830 86
2002-11-20 07:41:39 51°17.561 2°52.287 8.3 171 7.9 100830 86
2002-11-20 07:41:43 51°17.575 2°52.287 8.1 179 7.9 100830 86
2002-11-20 07:41:48 51°17.593 2°52.286 8.4 174 7.9 100830 86
2002-11-20 07:41:52 51°17.608 2°52.285 7.4 176 7.9 100830 85
2002-11-20 07:41:58 51°17.629 2°52.285 8.9 173 7.9 100830 85
2002-11-20 07:42:03 51°17.647 2°52.284 7.9 174 7.9 100830 86
2002-11-20 07:42:08 51°17.664 2°52.284 8.9 173 7.9 100830 86
2002-11-20 07:42:13 51°17.682 2°52.283 8.7 170 7.9 100830 86
2002-11-20 07:42:18 51°17.7 2°52.281 8.6 172 7.9 100830 86
2002-11-20 07:42:23 51°17.718 2°52.28 7.4 176 7.9 100830 85
2002-11-20 07:42:28 51°17.736 2°52.279 9 174 7.9 100830 85
2002-11-20 07:42:32 51°17.75 2°52.277 8.1 178 7.9 100830 86
2002-11-20 07:42:38 51°17.771 2°52.276 8.4 176 7.9 100830 86
2002-11-20 07:42:43 51°17.789 2°52.275 9.6 176 8 100830 86
2002-11-20 07:42:48 51°17.807 2°52.275 7.5 176 8 100830 86
2002-11-20 07:42:54 51°17.829 2°52.275 7.9 177 8 100830 86
2002-11-20 07:42:58 51°17.843 2°52.276 9.9 174 8 100830 86
2002-11-20 07:43:03 51°17.861 2°52.277 9 179 8 100830 86
2002-11-20 07:43:08 51°17.879 2°52.278 7.9 181 8 100830 86
2002-11-20 07:43:14 51°17.9 2°52.279 8.6 180 8 100830 85
2002-11-20 07:43:18 51°17.914 2°52.28 8.3 176 8 100830 85
2002-11-20 07:43:24 51°17.936 2°52.281 8.3 178 8 100830 86
2002-11-20 07:43:28 51°17.95 2°52.281 7.8 176 8 100830 86
2002-11-20 07:43:32 51°17.965 2°52.281 7.6 177 8 100820 86
2002-11-20 07:43:39 51°17.989 2°52.282 7.7 182 8 100820 86
2002-11-20 07:43:43 51°18.004 2°52.282 8.7 177 8 100820 85
2002-11-20 07:43:48 51°18.022 2°52.282 9 178 8 100820 85
2002-11-20 07:43:53 51°18.04 2°52.282 9.2 177 7.9 100820 85
2002-11-20 07:43:58 51°18.057 2°52.283 8.9 179 7.9 100820 85
2002-11-20 07:44:03 51°18.075 2°52.287 9.3 179 8 100820 85
2002-11-20 07:44:08 51°18.093 2°52.292 9.7 183 8 100820 85
2002-11-20 07:44:12 51°18.106 2°52.298 8.2 185 8 100820 85
2002-11-20 07:44:18 51°18.126 2°52.309 10.4 180 8 100820 85
2002-11-20 07:44:23 51°18.142 2°52.319 8.5 186 8 100820 85
2002-11-20 07:44:28 51°18.159 2°52.33 10.2 182 8 100820 85
2002-11-20 07:44:32 51°18.172 2°52.339 9.4 183 8 100820 85
2002-11-20 07:44:38 51°18.191 2°52.353 8.8 187 8 100820 85
2002-11-20 07:44:43 51°18.207 2°52.366 9.2 184 7.9 100810 85
2002-11-20 07:44:48 51°18.222 2°52.381 10.6 197 7.9 100810 85
2002-11-20 07:44:54 51°18.238 2°52.401 11.6 198 7.9 100810 85
2002-11-20 07:44:58 51°18.249 2°52.416 12 197 7.9 100810 85
2002-11-20 07:45:03 51°18.262 2°52.434 11.9 199 7.9 100810 85
2002-11-20 07:45:08 51°18.275 2°52.453 11.6 196 7.9 100810 85
2002-11-20 07:45:12 51°18.285 2°52.469 12.5 197 7.9 100810 85
2002-11-20 07:45:18 51°18.299 2°52.493 11.6 197 7.9 100810 85
2002-11-20 07:45:23 51°18.312 2°52.513 12 196 8 100810 85
2002-11-20 07:45:28 51°18.324 2°52.533 12.5 200 8 100810 85
2002-11-20 07:45:34 51°18.338 2°52.558 13.3 199 8 100800 85
2002-11-20 07:45:38 51°18.347 2°52.575 11.9 198 8 100800 85
2002-11-20 07:45:44 51°18.361 2°52.599 11.7 198 8 100810 85
2002-11-20 07:45:48 51°18.37 2°52.617 12.3 198 8 100810 85
2002-11-20 07:45:54 51°18.384 2°52.642 12.4 199 8 100810 85
2002-11-20 07:45:58 51°18.392 2°52.66 12 204 8 100810 85
2002-11-20 07:46:04 51°18.404 2°52.688 13.4 199 8 100800 85
2002-11-20 07:46:08 51°18.412 2°52.706 12.7 199 8 100800 85
2002-11-20 07:46:14 51°18.423 2°52.735 12.8 201 8 100810 85
2002-11-20 07:46:18 51°18.431 2°52.754 13.9 201 8 100810 85
2002-11-20 07:46:24 51°18.442 2°52.782 12.3 200 7.9 100800 85
2002-11-20 07:46:28 51°18.449 2°52.801 13.5 204 7.9 100800 85
2002-11-20 07:46:34 51°18.46 2°52.83 14 203 8 100810 85
2002-11-20 07:46:39 51°18.469 2°52.854 14.1 202 8 100810 85
2002-11-20 07:46:43 51°18.477 2°52.874 12.7 204 8 100810 85
2002-11-20 07:46:48 51°18.485 2°52.898 14 204 8 100810 85
2002-11-20 07:46:54 51°18.495 2°52.928 13.5 205 8 100810 85
2002-11-20 07:46:58 51°18.502 2°52.947 12.9 202 8 100810 85
2002-11-20 07:47:03 51°18.511 2°52.972 12.3 205 8 100810 85
2002-11-20 07:47:08 51°18.52 2°52.996 11.7 206 8 100810 85
2002-11-20 07:47:14 51°18.531 2°53.025 12.6 202 8 100810 85
2002-11-20 07:47:18 51°18.538 2°53.045 13.7 203 8 100810 85
2002-11-20 07:47:24 51°18.548 2°53.075 13.1 204 8 100810 85
2002-11-20 07:47:28 51°18.555 2°53.094 14.8 200 8 100810 85
2002-11-20 07:47:32 51°18.562 2°53.114 14.6 202 8 100820 85
2002-11-20 07:47:38 51°18.572 2°53.143 13.4 204 8 100820 85
2002-11-20 07:47:43 51°18.581 2°53.168 12.7 206 8 100810 85
2002-11-20 07:47:48 51°18.589 2°53.192 12.5 201 8 100810 85
2002-11-20 07:47:52 51°18.597 2°53.212 13.1 204 8 100800 85
2002-11-20 07:47:58 51°18.607 2°53.241 13.9 204 8 100800 85
2002-11-20 07:48:03 51°18.616 2°53.265 13.8 203 8 100800 85
2002-11-20 07:48:08 51°18.625 2°53.289 12.8 203 8 100800 85
2002-11-20 07:48:12 51°18.633 2°53.307 12.7 204 8 100810 85
2002-11-20 07:48:19 51°18.645 2°53.341 12.8 207 8 100810 85
2002-11-20 07:48:23 51°18.653 2°53.36 13.7 204 8 100810 85
2002-11-20 07:48:28 51°18.661 2°53.384 12.7 202 8 100810 85
2002-11-20 07:48:34 51°18.672 2°53.413 13.3 201 8 100810 85
2002-11-20 07:48:38 51°18.679 2°53.432 12.4 200 8 100810 85
2002-11-20 07:48:44 51°18.689 2°53.461 11.6 205 8 100810 85
2002-11-20 07:48:48 51°18.696 2°53.48 13.8 209 8 100810 85
2002-11-20 07:48:54 51°18.706 2°53.509 14.2 209 7.9 100810 84
2002-11-20 07:48:58 51°18.713 2°53.529 13.6 209 7.9 100810 84
2002-11-20 07:49:04 51°18.722 2°53.559 13.8 203 8 100810 85
2002-11-20 07:49:08 51°18.729 2°53.579 13.3 211 8 100810 85
2002-11-20 07:49:14 51°18.737 2°53.609 14 209 8 100810 85
2002-11-20 07:49:18 51°18.743 2°53.629 14.2 209 8 100810 85
2002-11-20 07:49:24 51°18.752 2°53.659 14 205 8 100810 85
2002-11-20 07:49:28 51°18.758 2°53.679 14 204 8 100810 85
2002-11-20 07:49:34 51°18.768 2°53.708 12 205 8 100810 85
2002-11-20 07:49:38 51°18.774 2°53.728 13.4 210 8 100810 85
2002-11-20 07:49:43 51°18.782 2°53.753 14.3 208 7.9 100810 85
2002-11-20 07:49:48 51°18.79 2°53.778 13.2 206 7.9 100810 85
2002-11-20 07:49:54 51°18.799 2°53.807 13.9 205 7.9 100810 84
2002-11-20 07:49:58 51°18.805 2°53.828 13.6 207 7.9 100810 84
2002-11-20 07:50:04 51°18.814 2°53.857 13.7 207 7.9 100810 85
2002-11-20 07:50:08 51°18.82 2°53.877 13.5 207 7.9 100810 85
2002-11-20 07:50:14 51°18.829 2°53.907 11.7 209 7.9 100810 85
2002-11-20 07:50:18 51°18.835 2°53.926 12.3 206 7.9 100810 85
2002-11-20 07:50:24 51°18.845 2°53.956 13.9 206 7.9 100810 84
2002-11-20 07:50:28 51°18.851 2°53.976 13.5 198 7.9 100810 84
2002-11-20 07:50:34 51°18.86 2°54.006 13.2 209 7.9 100810 84
2002-11-20 07:50:38 51°18.866 2°54.026 12.8 202 7.9 100810 84
2002-11-20 07:50:43 51°18.874 2°54.05 12.5 205 7.9 100810 85
2002-11-20 07:50:48 51°18.882 2°54.075 13.1 205 7.9 100810 85
2002-11-20 07:50:53 51°18.889 2°54.1 13.2 208 7.9 100810 85
2002-11-20 07:50:58 51°18.897 2°54.125 13.6 204 7.9 100810 85
2002-11-20 07:51:03 51°18.904 2°54.149 13.7 202 7.9 100810 85
2002-11-20 07:51:08 51°18.912 2°54.174 13 205 7.9 100810 85
2002-11-20 07:51:12 51°18.918 2°54.194 13.7 207 7.9 100820 85
2002-11-20 07:51:18 51°18.928 2°54.223 13.6 204 7.9 100820 85
2002-11-20 07:51:23 51°18.936 2°54.248 13.5 205 7.9 100810 85
2002-11-20 07:51:28 51°18.943 2°54.272 12.9 208 7.9 100810 85
2002-11-20 07:51:34 51°18.952 2°54.302 13.7 205 7.9 100810 85
2002-11-20 07:51:38 51°18.959 2°54.322 13.5 205 7.9 100810 85
2002-11-20 07:51:43 51°18.966 2°54.347 13 205 7.9 100810 85
2002-11-20 07:51:48 51°18.974 2°54.371 13.6 207 7.9 100810 85
2002-11-20 07:51:54 51°18.983 2°54.4 14.4 209 7.8 100810 84
2002-11-20 07:51:58 51°18.989 2°54.42 14.1 207 7.8 100810 84
2002-11-20 07:52:04 51°18.998 2°54.45 14.2 209 7.8 100810 85
2002-11-20 07:52:08 51°19.004 2°54.47 12.5 206 7.8 100810 85
2002-11-20 07:52:14 51°19.013 2°54.499 13 205 7.9 100810 85
2002-11-20 07:52:18 51°19.02 2°54.519 12.8 202 7.9 100810 85
2002-11-20 07:52:24 51°19.029 2°54.548 12.4 204 7.9 100810 85
2002-11-20 07:52:28 51°19.035 2°54.567 13.7 207 7.9 100810 85
2002-11-20 07:52:34 51°19.044 2°54.597 13.5 206 7.8 100810 85
2002-11-20 07:52:38 51°19.05 2°54.616 13.8 206 7.8 100810 85
2002-11-20 07:52:43 51°19.057 2°54.641 13.5 204 7.8 100810 85
2002-11-20 07:52:48 51°19.065 2°54.666 13 205 7.8 100810 85
2002-11-20 07:52:53 51°19.073 2°54.69 12.4 201 7.8 100810 85
2002-11-20 07:52:58 51°19.08 2°54.714 12.8 204 7.8 100810 85
2002-11-20 07:53:04 51°19.089 2°54.744 13 206 7.8 100810 85
2002-11-20 07:53:08 51°19.096 2°54.763 13.7 204 7.8 100810 85
2002-11-20 07:53:14 51°19.105 2°54.792 13.6 205 7.8 100810 85
2002-11-20 07:53:18 51°19.111 2°54.812 13.6 202 7.8 100810 85
2002-11-20 07:53:24 51°19.12 2°54.842 13 201 7.8 100810 85
2002-11-20 07:53:28 51°19.126 2°54.861 13.1 203 7.8 100810 85
2002-11-20 07:53:34 51°19.136 2°54.891 12.9 202 7.8 100810 85
2002-11-20 07:53:38 51°19.142 2°54.91 13 204 7.8 100810 85
2002-11-20 07:53:43 51°19.149 2°54.935 13.9 203 7.8 100810 85
2002-11-20 07:53:48 51°19.157 2°54.959 13.4 201 7.8 100810 85
2002-11-20 07:53:53 51°19.165 2°54.984 14.3 200 7.8 100820 85
2002-11-20 07:53:58 51°19.172 2°55.008 12.5 204 7.8 100820 85
2002-11-20 07:54:04 51°19.181 2°55.038 12.9 202 7.8 100810 85
2002-11-20 07:54:08 51°19.188 2°55.057 14.3 205 7.8 100810 85
2002-11-20 07:54:12 51°19.194 2°55.077 13.2 207 7.8 100820 85
2002-11-20 07:54:18 51°19.203 2°55.106 13.2 203 7.8 100820 85
2002-11-20 07:54:23 51°19.211 2°55.131 12.2 205 7.8 100810 85
2002-11-20 07:54:28 51°19.218 2°55.155 13.8 205 7.8 100810 85
2002-11-20 07:54:34 51°19.228 2°55.185 13 202 7.9 100810 85
2002-11-20 07:54:38 51°19.234 2°55.204 14.5 203 7.9 100810 85
2002-11-20 07:54:44 51°19.244 2°55.233 14.6 204 7.9 100820 85
2002-11-20 07:54:48 51°19.25 2°55.253 12.7 201 7.9 100820 85
2002-11-20 07:54:54 51°19.259 2°55.282 13.1 207 7.9 100810 85
2002-11-20 07:54:58 51°19.265 2°55.302 14.2 203 7.9 100810 85
2002-11-20 07:55:04 51°19.275 2°55.331 12.7 204 7.8 100820 85
2002-11-20 07:55:08 51°19.281 2°55.35 13 201 7.8 100820 85
2002-11-20 07:55:14 51°19.29 2°55.38 12.7 207 7.8 100820 85
2002-11-20 07:55:18 51°19.296 2°55.4 12.6 204 7.8 100820 85
2002-11-20 07:55:23 51°19.304 2°55.424 12.8 202 7.8 100820 85
2002-11-20 07:55:28 51°19.312 2°55.448 14 206 7.8 100820 85
2002-11-20 07:55:34 51°19.322 2°55.478 13.9 205 7.9 100820 85
2002-11-20 07:55:39 51°19.329 2°55.502 13.7 204 7.9 100820 85
2002-11-20 07:55:43 51°19.336 2°55.522 13.2 202 7.9 100820 85
2002-11-20 07:55:48 51°19.343 2°55.547 13.6 204 7.9 100820 85
2002-11-20 07:55:54 51°19.353 2°55.576 12.9 205 7.9 100810 85
2002-11-20 07:55:58 51°19.359 2°55.596 13.4 200 7.9 100810 85
2002-11-20 07:56:04 51°19.368 2°55.625 13.2 199 7.8 100820 85
2002-11-20 07:56:08 51°19.374 2°55.645 14.7 205 7.8 100820 85
2002-11-20 07:56:14 51°19.384 2°55.674 13.6 203 7.8 100810 85
2002-11-20 07:56:18 51°19.39 2°55.694 12.6 200 7.8 100810 85
2002-11-20 07:56:24 51°19.399 2°55.724 12.9 204 7.8 100810 85
2002-11-20 07:56:28 51°19.405 2°55.743 14.1 205 7.8 100810 85
2002-11-20 07:56:34 51°19.415 2°55.773 13.7 203 7.8 100820 85
2002-11-20 07:56:38 51°19.421 2°55.792 14.1 201 7.8 100820 85
2002-11-20 07:56:43 51°19.429 2°55.817 14.9 203 7.8 100810 85
2002-11-20 07:56:48 51°19.436 2°55.841 12.9 204 7.8 100810 85
2002-11-20 07:56:53 51°19.444 2°55.866 14.1 202 7.8 100820 85
2002-11-20 07:56:58 51°19.452 2°55.89 12.7 199 7.8 100820 85
2002-11-20 07:57:03 51°19.46 2°55.915 13 200 7.8 100820 85
2002-11-20 07:57:08 51°19.467 2°55.94 12.8 202 7.8 100820 85
2002-11-20 07:57:12 51°19.473 2°55.959 13.8 203 7.8 100820 85
2002-11-20 07:57:18 51°19.482 2°55.988 13.7 201 7.8 100820 85
2002-11-20 07:57:24 51°19.491 2°56.017 13.4 202 7.8 100820 84
2002-11-20 07:57:28 51°19.497 2°56.037 13.7 204 7.8 100820 84
2002-11-20 07:57:34 51°19.507 2°56.066 13.6 204 7.8 100820 85
2002-11-20 07:57:38 51°19.513 2°56.086 13.5 204 7.8 100820 85
2002-11-20 07:57:43 51°19.521 2°56.11 14 203 7.8 100820 84
2002-11-20 07:57:48 51°19.529 2°56.135 12.5 207 7.8 100820 84
2002-11-20 07:57:53 51°19.536 2°56.159 13 206 7.8 100830 85
2002-11-20 07:57:58 51°19.544 2°56.183 14 208 7.8 100830 85
2002-11-20 07:58:03 51°19.552 2°56.208 14.4 203 7.8 100820 85
2002-11-20 07:58:08 51°19.56 2°56.232 13.6 201 7.8 100820 85
2002-11-20 07:58:12 51°19.566 2°56.251 14 199 7.8 100820 85
2002-11-20 07:58:19 51°19.577 2°56.285 13.4 201 7.8 100820 85
2002-11-20 07:58:24 51°19.585 2°56.31 12.5 205 7.8 100820 85
2002-11-20 07:58:28 51°19.591 2°56.329 14.4 203 7.8 100820 85
2002-11-20 07:58:34 51°19.6 2°56.358 13 203 7.8 100820 85
2002-11-20 07:58:38 51°19.606 2°56.378 13 205 7.8 100820 85
2002-11-20 07:58:43 51°19.614 2°56.402 13.4 202 7.8 100820 85
2002-11-20 07:58:48 51°19.622 2°56.426 13.7 201 7.8 100820 85
2002-11-20 07:58:53 51°19.63 2°56.45 12.3 200 7.8 100820 85
2002-11-20 07:58:58 51°19.638 2°56.474 13.9 202 7.8 100820 85
2002-11-20 07:59:04 51°19.647 2°56.504 11.8 203 7.7 100820 85
2002-11-20 07:59:08 51°19.653 2°56.523 12.5 204 7.7 100820 85
2002-11-20 07:59:12 51°19.66 2°56.542 11.9 205 7.7 100820 85
2002-11-20 07:59:18 51°19.669 2°56.572 12.8 207 7.7 100820 85
2002-11-20 07:59:24 51°19.678 2°56.601 12.2 208 7.8 100820 85
2002-11-20 07:59:28 51°19.684 2°56.62 12.6 202 7.8 100820 85
2002-11-20 07:59:32 51°19.691 2°56.64 12.5 200 7.7 100830 85
2002-11-20 07:59:38 51°19.7 2°56.669 13 204 7.7 100830 85
2002-11-20 07:59:43 51°19.708 2°56.693 13.1 202 7.8 100820 85
2002-11-20 07:59:48 51°19.716 2°56.717 13.5 201 7.8 100820 85
2002-11-20 07:59:53 51°19.723 2°56.741 12.2 200 7.7 100820 85
2002-11-20 07:59:58 51°19.731 2°56.766 13.2 209 7.7 100820 85
2002-11-20 08:00:03 51°19.738 2°56.79 13.4 205 7.7 100830 85
2002-11-20 08:00:08 51°19.746 2°56.814 13.9 200 7.7 100830 85
2002-11-20 08:00:12 51°19.752 2°56.834 12.3 204 7.7 100820 84
2002-11-20 08:00:18 51°19.762 2°56.863 13.7 201 7.7 100820 84
2002-11-20 08:00:24 51°19.771 2°56.892 12.6 203 7.7 100830 85
2002-11-20 08:00:28 51°19.777 2°56.912 12 205 7.7 100830 85
2002-11-20 08:00:34 51°19.786 2°56.941 13.5 207 7.7 100830 85
2002-11-20 08:00:38 51°19.792 2°56.961 12.8 204 7.7 100830 85
2002-11-20 08:00:43 51°19.8 2°56.985 14 204 7.7 100830 85
2002-11-20 08:00:48 51°19.808 2°57.009 12.7 201 7.7 100830 85
2002-11-20 08:00:53 51°19.815 2°57.033 13.6 202 7.7 100830 85
2002-11-20 08:00:58 51°19.823 2°57.058 13.5 200 7.7 100830 85
2002-11-20 08:01:04 51°19.833 2°57.087 12.9 200 7.7 100830 85
2002-11-20 08:01:08 51°19.839 2°57.106 13.1 203 7.7 100830 85
2002-11-20 08:01:14 51°19.848 2°57.135 12.6 201 7.7 100820 85
2002-11-20 08:01:18 51°19.855 2°57.155 14.4 203 7.7 100820 85
2002-11-20 08:01:23 51°19.863 2°57.179 14.1 205 7.7 100820 84
2002-11-20 08:01:28 51°19.871 2°57.203 12.9 206 7.7 100820 84
2002-11-20 08:01:32 51°19.877 2°57.223 12.9 202 7.6 100830 84
2002-11-20 08:01:38 51°19.886 2°57.252 12.2 200 7.6 100830 84
2002-11-20 08:01:43 51°19.894 2°57.277 13.2 200 7.6 100830 84
2002-11-20 08:01:48 51°19.902 2°57.301 14 201 7.6 100830 84
2002-11-20 08:01:52 51°19.908 2°57.321 13.1 201 7.6 100830 84
2002-11-20 08:01:58 51°19.918 2°57.35 13 202 7.6 100830 84
2002-11-20 08:02:03 51°19.926 2°57.375 12.1 197 7.6 100830 84
2002-11-20 08:02:08 51°19.934 2°57.399 12.5 203 7.6 100830 84
2002-11-20 08:02:13 51°19.941 2°57.424 13.3 210 7.6 100820 84
2002-11-20 08:02:18 51°19.949 2°57.449 13.3 204 7.6 100820 84
2002-11-20 08:02:24 51°19.958 2°57.478 12.9 205 7.6 100830 84
2002-11-20 08:02:28 51°19.964 2°57.498 13.7 207 7.6 100830 84
2002-11-20 08:02:32 51°19.97 2°57.518 13.5 211 7.6 100830 84
2002-11-20 08:02:39 51°19.982 2°57.551 12.7 206 7.6 100830 84
2002-11-20 08:02:43 51°19.988 2°57.571 12.7 205 7.6 100830 85
2002-11-20 08:02:48 51°19.995 2°57.596 13.1 199 7.6 100830 85
2002-11-20 08:02:53 51°20.004 2°57.62 13.4 201 7.6 100830 85
2002-11-20 08:02:58 51°20.012 2°57.644 13.8 203 7.6 100830 85
2002-11-20 08:03:03 51°20.019 2°57.669 12.8 202 7.6 100830 85
2002-11-20 08:03:08 51°20.028 2°57.693 12.5 209 7.6 100830 85
2002-11-20 08:03:12 51°20.034 2°57.713 13.4 210 7.6 100830 84
2002-11-20 08:03:19 51°20.044 2°57.747 12.6 211 7.6 100830 84
2002-11-20 08:03:23 51°20.051 2°57.767 13.8 208 7.6 100830 85
2002-11-20 08:03:28 51°20.058 2°57.791 13.2 204 7.6 100830 85
2002-11-20 08:03:32 51°20.065 2°57.811 13.5 205 7.6 100840 85
2002-11-20 08:03:38 51°20.074 2°57.84 12.7 206 7.6 100840 85
2002-11-20 08:03:43 51°20.082 2°57.865 13 206 7.6 100830 85
2002-11-20 08:03:48 51°20.089 2°57.89 12.7 205 7.6 100830 85
2002-11-20 08:03:52 51°20.096 2°57.909 12.4 209 7.6 100830 85
2002-11-20 08:03:59 51°20.107 2°57.943 13.6 206 7.6 100830 85
2002-11-20 08:04:03 51°20.113 2°57.962 13.2 204 7.6 100830 85
2002-11-20 08:04:08 51°20.121 2°57.987 13.1 206 7.6 100830 85
2002-11-20 08:04:14 51°20.131 2°58.016 13 205 7.6 100840 85
2002-11-20 08:04:18 51°20.137 2°58.035 13.5 207 7.6 100840 85
2002-11-20 08:04:24 51°20.146 2°58.065 13.8 207 7.7 100840 85
2002-11-20 08:04:28 51°20.153 2°58.084 11.5 207 7.7 100840 85
2002-11-20 08:04:34 51°20.162 2°58.113 12.1 208 7.6 100830 85
2002-11-20 08:04:38 51°20.168 2°58.133 12.8 206 7.6 100830 85
2002-11-20 08:04:43 51°20.176 2°58.157 13.8 200 7.6 100830 85
2002-11-20 08:04:48 51°20.184 2°58.182 13.3 203 7.6 100830 85
2002-11-20 08:04:54 51°20.193 2°58.211 12.6 204 7.6 100830 85
2002-11-20 08:04:59 51°20.201 2°58.235 12.3 207 7.6 100830 85
2002-11-20 08:05:03 51°20.207 2°58.255 13 205 7.6 100830 85
2002-11-20 08:05:08 51°20.215 2°58.279 14 202 7.6 100830 85
2002-11-20 08:05:12 51°20.222 2°58.298 13.2 201 7.6 100820 85
2002-11-20 08:05:18 51°20.231 2°58.328 12.9 204 7.6 100820 85
2002-11-20 08:05:23 51°20.238 2°58.352 13.3 207 7.6 100830 85
2002-11-20 08:05:28 51°20.246 2°58.377 14.3 204 7.6 100830 85
2002-11-20 08:05:32 51°20.252 2°58.396 14 202 7.6 100820 85
2002-11-20 08:05:38 51°20.262 2°58.425 12.9 202 7.6 100820 85
2002-11-20 08:05:44 51°20.271 2°58.454 12.7 202 7.6 100830 85
2002-11-20 08:05:48 51°20.277 2°58.474 12.7 209 7.6 100830 85
2002-11-20 08:05:54 51°20.287 2°58.503 12.7 208 7.6 100830 85
2002-11-20 08:05:58 51°20.293 2°58.522 13 204 7.6 100830 85
2002-11-20 08:06:04 51°20.303 2°58.551 14.7 206 7.6 100830 85
2002-11-20 08:06:08 51°20.309 2°58.571 13.7 204 7.6 100830 85
2002-11-20 08:06:13 51°20.317 2°58.595 13.5 202 7.6 100840 85
2002-11-20 08:06:18 51°20.325 2°58.619 12.8 203 7.6 100840 85
2002-11-20 08:06:24 51°20.334 2°58.648 13.3 204 7.6 100830 85
2002-11-20 08:06:28 51°20.34 2°58.667 13.1 206 7.6 100830 85
2002-11-20 08:06:32 51°20.347 2°58.686 13.1 206 7.6 100820 85
2002-11-20 08:06:39 51°20.358 2°58.72 12.8 206 7.6 100820 85
2002-11-20 08:06:44 51°20.365 2°58.744 13.7 206 7.5 100830 85
2002-11-20 08:06:48 51°20.372 2°58.764 14.8 204 7.5 100830 85
2002-11-20 08:06:52 51°20.378 2°58.783 14.4 207 7.5 100830 85
2002-11-20 08:06:58 51°20.388 2°58.812 13.8 205 7.5 100830 85
2002-11-20 08:07:03 51°20.396 2°58.836 13.5 205 7.5 100830 85
2002-11-20 08:07:08 51°20.403 2°58.86 14.2 206 7.5 100830 85
2002-11-20 08:07:14 51°20.413 2°58.889 13.9 203 7.5 100830 85
2002-11-20 08:07:18 51°20.419 2°58.908 13.2 202 7.5 100830 85
2002-11-20 08:07:24 51°20.429 2°58.936 14.5 205 7.5 100830 85
2002-11-20 08:07:28 51°20.435 2°58.956 14.7 204 7.5 100830 85
2002-11-20 08:07:32 51°20.441 2°58.975 12.7 209 7.5 100830 85
2002-11-20 08:07:38 51°20.451 2°59.003 13.4 206 7.5 100830 85
2002-11-20 08:07:43 51°20.459 2°59.027 14 203 7.5 100830 85
2002-11-20 08:07:48 51°20.467 2°59.051 13.7 204 7.5 100830 85
2002-11-20 08:07:52 51°20.473 2°59.07 12.8 205 7.5 100830 85
2002-11-20 08:07:58 51°20.482 2°59.099 12.6 205 7.5 100830 85
2002-11-20 08:08:04 51°20.491 2°59.129 12.8 211 7.5 100830 85
2002-11-20 08:08:08 51°20.497 2°59.148 14.5 208 7.5 100830 85
2002-11-20 08:08:13 51°20.504 2°59.172 13.2 208 7.5 100830 85
2002-11-20 08:08:18 51°20.512 2°59.196 12.9 204 7.5 100830 85
2002-11-20 08:08:24 51°20.52 2°59.226 13.1 206 7.5 100830 85
2002-11-20 08:08:28 51°20.526 2°59.245 13 209 7.5 100830 85
2002-11-20 08:08:34 51°20.535 2°59.275 13.7 210 7.5 100830 85
2002-11-20 08:08:38 51°20.541 2°59.294 13.3 208 7.5 100830 85
2002-11-20 08:08:43 51°20.548 2°59.318 13.7 203 7.5 100830 85
2002-11-20 08:08:48 51°20.556 2°59.343 13 206 7.5 100830 85
2002-11-20 08:08:52 51°20.561 2°59.362 13.8 203 7.5 100830 85
2002-11-20 08:08:58 51°20.57 2°59.391 12.4 203 7.5 100830 85
2002-11-20 08:09:03 51°20.577 2°59.416 12.4 211 7.5 100830 85
2002-11-20 08:09:08 51°20.584 2°59.441 12.8 209 7.5 100830 85
2002-11-20 08:09:12 51°20.59 2°59.46 14.1 207 7.5 100820 85
2002-11-20 08:09:19 51°20.6 2°59.495 14.4 208 7.5 100820 85
2002-11-20 08:09:24 51°20.607 2°59.519 13.4 212 7.5 100830 85
2002-11-20 08:09:28 51°20.613 2°59.538 14.4 208 7.5 100830 85
2002-11-20 08:09:34 51°20.622 2°59.568 14 208 7.5 100830 86
2002-11-20 08:09:38 51°20.628 2°59.587 13.5 210 7.5 100830 86
2002-11-20 08:09:44 51°20.636 2°59.617 13.1 202 7.5 100830 85
2002-11-20 08:09:48 51°20.642 2°59.637 13.6 207 7.5 100830 85
2002-11-20 08:09:52 51°20.648 2°59.656 13.9 211 7.5 100830 85
2002-11-20 08:09:58 51°20.657 2°59.685 13.6 209 7.5 100830 85
2002-11-20 08:10:03 51°20.664 2°59.71 13.1 207 7.5 100830 85
2002-11-20 08:10:08 51°20.672 2°59.734 12.8 206 7.5 100830 85
2002-11-20 08:10:12 51°20.678 2°59.754 12.3 207 7.5 100830 86
2002-11-20 08:10:19 51°20.688 2°59.788 12.3 204 7.5 100830 86
2002-11-20 08:10:24 51°20.695 2°59.813 13.1 213 7.5 100830 86
2002-11-20 08:10:28 51°20.701 2°59.833 13.6 207 7.5 100830 86
2002-11-20 08:10:34 51°20.709 2°59.862 12.9 211 7.5 100830 85
2002-11-20 08:10:39 51°20.717 2°59.887 13.1 202 7.5 100830 85
2002-11-20 08:10:43 51°20.722 2°59.907 13.7 202 7.5 100830 85
2002-11-20 08:10:48 51°20.73 2°59.932 13.9 202 7.5 100830 85
2002-11-20 08:10:52 51°20.736 2°59.952 12.6 211 7.5 100840 86
2002-11-20 08:10:58 51°20.745 2°59.981 13.7 208 7.5 100840 86
2002-11-20 08:11:03 51°20.752 3°0.006 13.2 213 7.5 100830 86
2002-11-20 08:11:08 51°20.759 3°0.031 13.5 209 7.5 100830 86
2002-11-20 08:11:12 51°20.765 3°0.051 14.6 203 7.5 100830 86
2002-11-20 08:11:19 51°20.774 3°0.086 12.2 209 7.5 100830 86
2002-11-20 08:11:24 51°20.78 3°0.112 13.2 210 7.5 100840 86
2002-11-20 08:11:28 51°20.785 3°0.132 14.7 205 7.5 100840 86
2002-11-20 08:11:33 51°20.791 3°0.158 14.5 206 7.5 100830 85
2002-11-20 08:11:38 51°20.796 3°0.184 13.6 207 7.5 100830 85
2002-11-20 08:11:44 51°20.803 3°0.216 13.9 205 7.5 100830 85
2002-11-20 08:11:48 51°20.808 3°0.236 13.5 213 7.5 100830 85
2002-11-20 08:11:54 51°20.814 3°0.268 14.3 213 7.5 100840 85
2002-11-20 08:11:58 51°20.819 3°0.289 14.1 207 7.5 100840 85
2002-11-20 08:12:03 51°20.824 3°0.315 13.8 209 7.5 100830 86
2002-11-20 08:12:08 51°20.83 3°0.34 13.5 209 7.5 100830 86
2002-11-20 08:12:13 51°20.836 3°0.366 13.3 209 7.5 100830 86
2002-11-20 08:12:18 51°20.842 3°0.393 14.1 211 7.5 100830 86
2002-11-20 08:12:23 51°20.847 3°0.419 14.6 214 7.5 100820 85
2002-11-20 08:12:28 51°20.853 3°0.444 14.6 212 7.5 100820 85
2002-11-20 08:12:34 51°20.86 3°0.476 14.3 209 7.5 100830 85
2002-11-20 08:12:38 51°20.865 3°0.497 14.9 211 7.5 100830 85
2002-11-20 08:12:43 51°20.871 3°0.522 13.5 210 7.5 100830 86
2002-11-20 08:12:48 51°20.877 3°0.548 13.8 206 7.5 100830 86
2002-11-20 08:12:53 51°20.883 3°0.574 14.6 210 7.5 100830 86
2002-11-20 08:12:59 51°20.89 3°0.606 14.2 213 7.5 100830 86
2002-11-20 08:13:03 51°20.895 3°0.627 15.2 211 7.5 100830 85
2002-11-20 08:13:08 51°20.901 3°0.653 13.9 208 7.5 100830 85
2002-11-20 08:13:14 51°20.907 3°0.684 13.3 208 7.5 100830 85
2002-11-20 08:13:18 51°20.912 3°0.705 13.2 207 7.5 100830 85
2002-11-20 08:13:23 51°20.918 3°0.731 13.3 206 7.5 100830 86
2002-11-20 08:13:28 51°20.924 3°0.757 14.4 211 7.5 100830 86
2002-11-20 08:13:34 51°20.931 3°0.789 12.9 209 7.5 100830 86
2002-11-20 08:13:39 51°20.936 3°0.815 13.3 209 7.5 100830 86
2002-11-20 08:13:43 51°20.941 3°0.836 14.9 210 7.5 100820 85
2002-11-20 08:13:48 51°20.947 3°0.862 14.3 217 7.5 100820 85
2002-11-20 08:13:52 51°20.952 3°0.883 14.6 211 7.5 100830 85
2002-11-20 08:13:58 51°20.959 3°0.914 15.3 211 7.5 100830 85
2002-11-20 08:14:03 51°20.965 3°0.941 15.3 208 7.5 100830 86
2002-11-20 08:14:08 51°20.97 3°0.967 14.2 207 7.5 100830 86
2002-11-20 08:14:13 51°20.976 3°0.993 14.3 207 7.5 100830 86
2002-11-20 08:14:18 51°20.982 3°1.019 14.3 211 7.5 100830 86
2002-11-20 08:14:23 51°20.988 3°1.045 14.6 213 7.5 100820 85
2002-11-20 08:14:28 51°20.994 3°1.072 13.9 207 7.5 100820 85
2002-11-20 08:14:34 51°21.001 3°1.103 14.7 208 7.5 100820 85
2002-11-20 08:14:38 51°21.005 3°1.124 13 209 7.5 100820 85
2002-11-20 08:14:43 51°21.011 3°1.151 14.2 206 7.5 100830 85
2002-11-20 08:14:48 51°21.017 3°1.177 14.3 210 7.5 100830 85
2002-11-20 08:14:52 51°21.022 3°1.198 14.9 211 7.5 100830 85
2002-11-20 08:14:58 51°21.029 3°1.229 14.6 209 7.5 100830 85
2002-11-20 08:15:03 51°21.035 3°1.255 14.5 207 7.5 100830 86
2002-11-20 08:15:08 51°21.04 3°1.282 15.1 208 7.5 100830 86
2002-11-20 08:15:13 51°21.046 3°1.308 14.1 209 7.5 100830 86
2002-11-20 08:15:18 51°21.052 3°1.334 14.2 210 7.5 100830 86
2002-11-20 08:15:23 51°21.057 3°1.361 14.4 210 7.5 100830 86
2002-11-20 08:15:28 51°21.063 3°1.386 13.6 214 7.5 100830 86
2002-11-20 08:15:34 51°21.07 3°1.418 14.8 207 7.5 100830 85
2002-11-20 08:15:38 51°21.075 3°1.439 14.3 209 7.5 100830 85
2002-11-20 08:15:43 51°21.081 3°1.465 14.2 207 7.5 100830 85
2002-11-20 08:15:48 51°21.087 3°1.492 13.6 207 7.5 100830 85
2002-11-20 08:15:53 51°21.093 3°1.518 13.2 206 7.5 100840 85
2002-11-20 08:15:59 51°21.099 3°1.55 12.6 210 7.5 100840 85
2002-11-20 08:16:03 51°21.104 3°1.572 14.3 210 7.5 100830 85
2002-11-20 08:16:08 51°21.11 3°1.598 14.6 211 7.5 100830 85
2002-11-20 08:16:13 51°21.116 3°1.625 14.6 211 7.4 100830 85
2002-11-20 08:16:19 51°21.123 3°1.656 14.6 208 7.4 100830 85
2002-11-20 08:16:24 51°21.129 3°1.681 13.9 210 7.4 100830 85
2002-11-20 08:16:28 51°21.134 3°1.702 13.3 207 7.4 100830 85
2002-11-20 08:16:34 51°21.141 3°1.733 13.7 207 7.5 100830 85
2002-11-20 08:16:38 51°21.146 3°1.754 14.2 214 7.5 100830 85
2002-11-20 08:16:43 51°21.152 3°1.781 14 210 7.4 100830 85
2002-11-20 08:16:48 51°21.158 3°1.807 15.1 208 7.4 100830 85
2002-11-20 08:16:52 51°21.162 3°1.828 14.7 203 7.4 100830 85
2002-11-20 08:16:59 51°21.171 3°1.865 14.4 203 7.4 100830 85
2002-11-20 08:17:03 51°21.175 3°1.886 13.6 202 7.4 100830 85
2002-11-20 08:17:08 51°21.181 3°1.913 14.1 209 7.4 100830 85
2002-11-20 08:17:13 51°21.187 3°1.939 15.2 207 7.4 100830 85
2002-11-20 08:17:19 51°21.194 3°1.971 14 207 7.4 100830 85
2002-11-20 08:17:24 51°21.199 3°1.998 14.5 210 7.4 100830 85
2002-11-20 08:17:28 51°21.204 3°2.019 15.4 208 7.4 100830 85
2002-11-20 08:17:34 51°21.211 3°2.05 14 206 7.5 100830 85
2002-11-20 08:17:38 51°21.216 3°2.072 14.7 206 7.5 100830 85
2002-11-20 08:17:43 51°21.222 3°2.098 13.5 203 7.4 100840 85
2002-11-20 08:17:48 51°21.228 3°2.124 13 211 7.4 100840 85
2002-11-20 08:17:53 51°21.233 3°2.151 13.3 210 7.4 100840 85
2002-11-20 08:17:58 51°21.24 3°2.177 15.2 208 7.4 100840 85
2002-11-20 08:18:03 51°21.245 3°2.203 15.5 208 7.4 100830 85
2002-11-20 08:18:08 51°21.25 3°2.228 14.6 210 7.4 100830 85
2002-11-20 08:18:14 51°21.257 3°2.259 14.3 210 7.5 100830 85
2002-11-20 08:18:18 51°21.262 3°2.281 14.6 208 7.5 100830 85
2002-11-20 08:18:23 51°21.268 3°2.307 14.4 208 7.4 100840 85
2002-11-20 08:18:28 51°21.274 3°2.333 14.7 205 7.4 100840 85
2002-11-20 08:18:34 51°21.281 3°2.365 13.8 205 7.4 100830 85
2002-11-20 08:18:39 51°21.286 3°2.392 12.8 203 7.4 100830 85
2002-11-20 08:18:43 51°21.291 3°2.412 12.8 206 7.4 100830 85
2002-11-20 08:18:48 51°21.297 3°2.439 13.6 210 7.4 100830 85
2002-11-20 08:18:54 51°21.304 3°2.47 13.7 210 7.4 100830 85
2002-11-20 08:18:59 51°21.309 3°2.496 14.4 211 7.4 100830 85
2002-11-20 08:19:04 51°21.315 3°2.522 14.5 207 7.4 100840 85
2002-11-20 08:19:08 51°21.32 3°2.542 14 209 7.4 100840 85
2002-11-20 08:19:14 51°21.327 3°2.574 15.2 209 7.4 100840 85
2002-11-20 08:19:18 51°21.331 3°2.594 12.9 207 7.4 100840 85
2002-11-20 08:19:23 51°21.337 3°2.62 13.4 206 7.4 100840 85
2002-11-20 08:19:28 51°21.343 3°2.647 13.6 205 7.4 100840 85
2002-11-20 08:19:33 51°21.349 3°2.673 13.5 205 7.4 100830 85
2002-11-20 08:19:39 51°21.355 3°2.705 13.7 211 7.4 100830 85
2002-11-20 08:19:43 51°21.36 3°2.726 15.1 210 7.4 100830 85
2002-11-20 08:19:48 51°21.365 3°2.752 14.5 213 7.4 100830 85
2002-11-20 08:19:52 51°21.37 3°2.774 14 208 7.4 100830 85
2002-11-20 08:19:58 51°21.377 3°2.805 14.6 206 7.4 100830 85
2002-11-20 08:20:03 51°21.382 3°2.831 14.1 206 7.4 100830 85
2002-11-20 08:20:08 51°21.388 3°2.858 13.8 206 7.4 100830 85
2002-11-20 08:20:12 51°21.393 3°2.879 13.3 207 7.4 100830 85
2002-11-20 08:20:19 51°21.401 3°2.916 15 207 7.4 100830 85
2002-11-20 08:20:23 51°21.406 3°2.937 14.2 207 7.4 100830 85
2002-11-20 08:20:28 51°21.411 3°2.963 13.5 207 7.4 100830 85
2002-11-20 08:20:33 51°21.417 3°2.989 14 206 7.4 100830 85
2002-11-20 08:20:38 51°21.423 3°3.016 14.4 206 7.4 100830 85
2002-11-20 08:20:44 51°21.43 3°3.048 13.7 208 7.4 100830 85
2002-11-20 08:20:48 51°21.434 3°3.069 13.7 209 7.4 100830 85
2002-11-20 08:20:52 51°21.438 3°3.09 14.4 209 7.4 100830 85
2002-11-20 08:20:58 51°21.445 3°3.121 14.6 207 7.4 100830 85
2002-11-20 08:21:04 51°21.452 3°3.153 15.6 206 7.4 100830 85
2002-11-20 08:21:08 51°21.457 3°3.174 14.3 210 7.4 100830 85
2002-11-20 08:21:14 51°21.465 3°3.205 15.2 207 7.5 100830 85
2002-11-20 08:21:18 51°21.469 3°3.226 14.2 203 7.5 100830 85
2002-11-20 08:21:23 51°21.475 3°3.252 14.9 201 7.4 100830 85
2002-11-20 08:21:28 51°21.481 3°3.279 14.2 210 7.4 100830 85
2002-11-20 08:21:33 51°21.486 3°3.305 13.3 209 7.4 100830 85
2002-11-20 08:21:39 51°21.493 3°3.337 13.6 212 7.4 100830 85
2002-11-20 08:21:43 51°21.498 3°3.358 14 208 7.4 100820 85
2002-11-20 08:21:48 51°21.504 3°3.384 14 211 7.4 100820 85
2002-11-20 08:21:52 51°21.508 3°3.405 14.5 208 7.4 100830 85
2002-11-20 08:21:59 51°21.516 3°3.442 14.8 204 7.4 100830 85
2002-11-20 08:22:03 51°21.521 3°3.463 14.3 205 7.4 100830 85
2002-11-20 08:22:08 51°21.527 3°3.489 14 204 7.4 100830 85
2002-11-20 08:22:12 51°21.531 3°3.51 15 208 7.4 100830 85
2002-11-20 08:22:18 51°21.539 3°3.542 13 206 7.4 100830 85
2002-11-20 08:22:23 51°21.545 3°3.568 13.7 205 7.4 100820 85
2002-11-20 08:22:28 51°21.55 3°3.594 14.5 208 7.4 100820 85
2002-11-20 08:22:32 51°21.555 3°3.615 14.2 207 7.4 100830 85
2002-11-20 08:22:39 51°21.564 3°3.652 15.2 207 7.4 100830 85
2002-11-20 08:22:44 51°21.57 3°3.678 15.3 210 7.4 100830 85
2002-11-20 08:22:48 51°21.574 3°3.699 13.9 206 7.4 100830 85
2002-11-20 08:22:54 51°21.581 3°3.73 13.6 209 7.4 100830 85
2002-11-20 08:22:58 51°21.586 3°3.751 14.4 206 7.4 100830 85
2002-11-20 08:23:03 51°21.592 3°3.778 14.1 205 7.4 100830 85
2002-11-20 08:23:08 51°21.598 3°3.804 13.9 207 7.4 100830 85
2002-11-20 08:23:13 51°21.603 3°3.831 15.2 204 7.4 100820 85
2002-11-20 08:23:18 51°21.609 3°3.857 14.4 206 7.4 100820 85
2002-11-20 08:23:23 51°21.615 3°3.884 14.2 205 7.4 100830 85
2002-11-20 08:23:28 51°21.621 3°3.909 13.4 197 7.4 100830 85
2002-11-20 08:23:34 51°21.631 3°3.939 14 197 7.4 100830 85
2002-11-20 08:23:38 51°21.638 3°3.959 13.4 202 7.4 100830 85
2002-11-20 08:23:43 51°21.647 3°3.982 15.3 197 7.5 100830 85
2002-11-20 08:23:48 51°21.657 3°4.005 13.4 197 7.5 100830 85
2002-11-20 08:23:54 51°21.668 3°4.032 13.1 197 7.5 100810 85
2002-11-20 08:23:59 51°21.679 3°4.054 13.3 197 7.5 100810 85
2002-11-20 08:24:03 51°21.688 3°4.072 14.1 196 7.5 100830 85
2002-11-20 08:24:08 51°21.698 3°4.094 13.5 194 7.5 100830 85
2002-11-20 08:24:12 51°21.706 3°4.112 12.8 192 7.4 100820 85
2002-11-20 08:24:18 51°21.719 3°4.139 11.7 197 7.4 100820 85
2002-11-20 08:24:24 51°21.732 3°4.165 12.6 197 7.4 100820 84
2002-11-20 08:24:28 51°21.741 3°4.183 12.5 195 7.4 100820 84
2002-11-20 08:24:34 51°21.753 3°4.21 11.5 194 7.4 100820 84
2002-11-20 08:24:38 51°21.762 3°4.228 11.2 192 7.4 100820 84
2002-11-20 08:24:43 51°21.772 3°4.251 11.5 195 7.4 100820 85
2002-11-20 08:24:48 51°21.783 3°4.273 14 198 7.4 100820 85
2002-11-20 08:24:53 51°21.794 3°4.296 13.5 196 7.4 100830 85
2002-11-20 08:24:59 51°21.806 3°4.323 12.6 197 7.4 100830 85
2002-11-20 08:25:03 51°21.815 3°4.341 12.2 197 7.4 100830 84
2002-11-20 08:25:08 51°21.825 3°4.363 12.7 207 7.4 100830 84
2002-11-20 08:25:12 51°21.834 3°4.381 12.4 200 7.5 100830 85
2002-11-20 08:25:18 51°21.847 3°4.408 12.6 201 7.5 100830 85
2002-11-20 08:25:23 51°21.857 3°4.431 13.3 196 7.5 100830 85
2002-11-20 08:25:28 51°21.868 3°4.453 11.7 195 7.5 100830 85
2002-11-20 08:25:33 51°21.879 3°4.476 13.9 200 7.5 100830 85
2002-11-20 08:25:38 51°21.889 3°4.499 13.4 198 7.5 100830 85
2002-11-20 08:25:43 51°21.898 3°4.523 13.6 203 7.5 100820 85
2002-11-20 08:25:48 51°21.906 3°4.548 12.9 202 7.5 100820 85
2002-11-20 08:25:54 51°21.915 3°4.578 13.7 201 7.5 100830 85
2002-11-20 08:25:58 51°21.92 3°4.599 12.9 206 7.5 100830 85
2002-11-20 08:26:03 51°21.927 3°4.626 15.3 211 7.5 100830 85
2002-11-20 08:26:08 51°21.932 3°4.653 15.2 208 7.5 100830 85
2002-11-20 08:26:14 51°21.937 3°4.685 14.3 211 7.5 100830 85
2002-11-20 08:26:19 51°21.942 3°4.712 13.2 209 7.5 100830 85
2002-11-20 08:26:23 51°21.945 3°4.734 13.9 208 7.5 100830 85
2002-11-20 08:26:28 51°21.949 3°4.761 15.6 210 7.5 100830 85
2002-11-20 08:26:34 51°21.954 3°4.794 14.4 212 7.5 100830 85
2002-11-20 08:26:38 51°21.957 3°4.816 14.5 210 7.5 100830 85
2002-11-20 08:26:43 51°21.961 3°4.844 13.7 210 7.5 100830 85
2002-11-20 08:26:48 51°21.965 3°4.871 15.2 209 7.5 100830 85
2002-11-20 08:26:54 51°21.969 3°4.905 15 212 7.5 100830 85
2002-11-20 08:26:58 51°21.972 3°4.927 14.6 208 7.5 100830 85
2002-11-20 08:27:03 51°21.976 3°4.955 15 209 7.5 100830 84
2002-11-20 08:27:08 51°21.98 3°4.982 14.8 205 7.5 100830 84
2002-11-20 08:27:12 51°21.983 3°5.005 14.5 205 7.5 100840 85
2002-11-20 08:27:19 51°21.989 3°5.043 14.5 208 7.5 100840 85
2002-11-20 08:27:24 51°21.993 3°5.071 15.1 210 7.5 100830 85
2002-11-20 08:27:28 51°21.996 3°5.094 15.7 212 7.5 100830 85
2002-11-20 08:27:32 51°21.999 3°5.116 15.4 210 7.5 100830 85
2002-11-20 08:27:38 51°22.004 3°5.148 14 206 7.5 100830 85
2002-11-20 08:27:43 51°22.008 3°5.176 13.7 205 7.5 100830 85
2002-11-20 08:27:48 51°22.012 3°5.204 13.5 207 7.5 100830 85
2002-11-20 08:27:54 51°22.017 3°5.237 13.7 210 7.5 100830 85
2002-11-20 08:27:58 51°22.02 3°5.259 13.8 210 7.5 100830 85
2002-11-20 08:28:04 51°22.025 3°5.292 15.4 214 7.5 100820 84
2002-11-20 08:28:08 51°22.028 3°5.315 15.1 208 7.5 100820 84
2002-11-20 08:28:12 51°22.032 3°5.337 16.7 209 7.5 100830 84
2002-11-20 08:28:18 51°22.037 3°5.37 15.1 203 7.5 100830 84
2002-11-20 08:28:23 51°22.041 3°5.397 14.2 207 7.5 100830 85
2002-11-20 08:28:28 51°22.045 3°5.425 13.5 207 7.5 100830 85
2002-11-20 08:28:32 51°22.048 3°5.447 14.3 208 7.5 100830 84
2002-11-20 08:28:39 51°22.054 3°5.486 14.1 211 7.5 100830 84
2002-11-20 08:28:43 51°22.057 3°5.508 14.8 211 7.5 100820 84
2002-11-20 08:28:48 51°22.062 3°5.535 14.9 213 7.5 100820 84
2002-11-20 08:28:52 51°22.065 3°5.558 15.4 211 7.5 100830 84
2002-11-20 08:28:58 51°22.07 3°5.591 14.2 208 7.5 100830 84
2002-11-20 08:29:03 51°22.074 3°5.619 14.8 208 7.5 100830 85
2002-11-20 08:29:08 51°22.079 3°5.647 14 210 7.5 100830 85
2002-11-20 08:29:12 51°22.082 3°5.669 14.2 207 7.5 100830 85
2002-11-20 08:29:18 51°22.087 3°5.702 14.5 205 7.5 100830 85
2002-11-20 08:29:24 51°22.092 3°5.735 13.3 210 7.5 100820 84
2002-11-20 08:29:28 51°22.096 3°5.757 13.7 211 7.5 100820 84
2002-11-20 08:29:32 51°22.099 3°5.78 14 209 7.5 100830 84
2002-11-20 08:29:38 51°22.104 3°5.813 15.5 210 7.5 100830 84
2002-11-20 08:29:43 51°22.108 3°5.841 15 208 7.5 100830 84
2002-11-20 08:29:48 51°22.113 3°5.868 15.1 210 7.5 100830 84
2002-11-20 08:29:53 51°22.117 3°5.896 14.9 210 7.5 100830 84
2002-11-20 08:29:58 51°22.121 3°5.924 14.9 211 7.5 100830 84
2002-11-20 08:30:03 51°22.125 3°5.952 13.8 209 7.5 100830 84
2002-11-20 08:30:08 51°22.13 3°5.979 13.4 208 7.5 100830 84
2002-11-20 08:30:13 51°22.134 3°6.007 14.4 208 7.4 100830 84
2002-11-20 08:30:18 51°22.139 3°6.035 14.3 208 7.4 100830 84
2002-11-20 08:30:23 51°22.143 3°6.062 15.1 211 7.4 100830 84
2002-11-20 08:30:28 51°22.148 3°6.09 15.4 211 7.4 100830 84
2002-11-20 08:30:34 51°22.153 3°6.122 14.3 211 7.4 100840 84
2002-11-20 08:30:38 51°22.156 3°6.144 14 209 7.4 100840 84
2002-11-20 08:30:43 51°22.161 3°6.171 15 209 7.5 100830 85
2002-11-20 08:30:48 51°22.165 3°6.198 14.4 212 7.5 100830 85
2002-11-20 08:30:54 51°22.17 3°6.231 14.6 209 7.5 100840 85
2002-11-20 08:30:59 51°22.175 3°6.258 14.3 212 7.5 100840 85
2002-11-20 08:31:03 51°22.179 3°6.28 14.9 210 7.5 100830 85
2002-11-20 08:31:08 51°22.183 3°6.307 14 206 7.5 100830 85
2002-11-20 08:31:12 51°22.186 3°6.329 16.1 205 7.5 100830 84
2002-11-20 08:31:19 51°22.193 3°6.367 13.4 210 7.5 100830 84
2002-11-20 08:31:24 51°22.197 3°6.395 14.2 207 7.4 100830 84
2002-11-20 08:31:28 51°22.201 3°6.416 13.4 208 7.4 100830 84
2002-11-20 08:31:34 51°22.206 3°6.449 13.8 207 7.4 100830 84
2002-11-20 08:31:38 51°22.21 3°6.471 14 205 7.4 100830 84
2002-11-20 08:31:43 51°22.214 3°6.499 13.4 208 7.4 100840 84
2002-11-20 08:31:48 51°22.219 3°6.526 13.9 207 7.4 100840 84
2002-11-20 08:31:54 51°22.223 3°6.559 14.6 208 7.4 100830 84
2002-11-20 08:31:59 51°22.228 3°6.586 12.9 203 7.4 100830 84
2002-11-20 08:32:03 51°22.232 3°6.608 13.2 210 7.4 100830 84
2002-11-20 08:32:08 51°22.236 3°6.635 13.1 207 7.4 100830 84
2002-11-20 08:32:13 51°22.241 3°6.663 12.4 207 7.4 100840 84
2002-11-20 08:32:19 51°22.245 3°6.696 13.6 212 7.4 100840 84
2002-11-20 08:32:24 51°22.25 3°6.723 13.3 212 7.4 100830 84
2002-11-20 08:32:28 51°22.254 3°6.745 12.4 212 7.4 100830 84
2002-11-20 08:32:34 51°22.259 3°6.777 14.1 209 7.4 100830 85
2002-11-20 08:32:39 51°22.264 3°6.804 13.6 205 7.4 100830 85
2002-11-20 08:32:43 51°22.267 3°6.826 12.3 208 7.4 100840 85
2002-11-20 08:32:48 51°22.272 3°6.852 14.5 210 7.4 100840 85
2002-11-20 08:32:52 51°22.275 3°6.874 13.8 211 7.4 100840 85
2002-11-20 08:32:59 51°22.281 3°6.912 14.2 210 7.4 100840 85
2002-11-20 08:33:03 51°22.285 3°6.934 14 208 7.4 100830 84
2002-11-20 08:33:08 51°22.289 3°6.961 13.8 205 7.4 100830 84
2002-11-20 08:33:12 51°22.293 3°6.982 12.6 203 7.4 100840 85
2002-11-20 08:33:19 51°22.299 3°7.021 13.7 208 7.4 100840 85
2002-11-20 08:33:23 51°22.302 3°7.042 14.2 208 7.4 100840 85
2002-11-20 08:33:28 51°22.307 3°7.069 14.3 210 7.4 100840 85
2002-11-20 08:33:34 51°22.313 3°7.102 14 211 7.3 100840 85
2002-11-20 08:33:38 51°22.316 3°7.124 13.6 209 7.3 100840 85
2002-11-20 08:33:43 51°22.32 3°7.151 13.3 210 7.3 100840 84
2002-11-20 08:33:48 51°22.325 3°7.178 14.2 210 7.3 100840 84
2002-11-20 08:33:53 51°22.329 3°7.206 14.5 208 7.3 100840 85
2002-11-20 08:33:58 51°22.334 3°7.233 13 213 7.3 100840 85
2002-11-20 08:34:03 51°22.338 3°7.26 14.4 206 7.4 100840 85
2002-11-20 08:34:08 51°22.343 3°7.287 14 205 7.4 100840 85
2002-11-20 08:34:14 51°22.349 3°7.319 12.9 205 7.3 100830 85
2002-11-20 08:34:18 51°22.354 3°7.34 13.5 205 7.3 100830 85
2002-11-20 08:34:23 51°22.359 3°7.367 13.8 206 7.4 100840 85
2002-11-20 08:34:28 51°22.365 3°7.394 13.9 205 7.4 100840 85
2002-11-20 08:34:34 51°22.371 3°7.426 12.9 208 7.3 100830 85
2002-11-20 08:34:39 51°22.377 3°7.453 13.1 208 7.3 100830 85
2002-11-20 08:34:43 51°22.381 3°7.474 13.8 207 7.3 100840 84
2002-11-20 08:34:48 51°22.386 3°7.501 13.2 210 7.3 100840 84
2002-11-20 08:34:54 51°22.393 3°7.533 12.9 206 7.3 100830 84
2002-11-20 08:34:59 51°22.398 3°7.56 14.7 205 7.3 100830 84
2002-11-20 08:35:04 51°22.404 3°7.586 14.7 202 7.3 100830 85
2002-11-20 08:35:08 51°22.408 3°7.608 14.3 204 7.3 100830 85
2002-11-20 08:35:12 51°22.412 3°7.63 14.3 201 7.3 100840 85
2002-11-20 08:35:19 51°22.42 3°7.667 13.7 202 7.3 100840 85
2002-11-20 08:35:23 51°22.425 3°7.689 13 207 7.3 100830 84
2002-11-20 08:35:28 51°22.43 3°7.715 14.1 208 7.3 100830 84
2002-11-20 08:35:34 51°22.436 3°7.748 13.5 209 7.3 100840 84
2002-11-20 08:35:39 51°22.441 3°7.775 13.3 201 7.3 100840 84
2002-11-20 08:35:44 51°22.447 3°7.802 14.6 204 7.3 100830 84
2002-11-20 08:35:48 51°22.451 3°7.823 14.4 204 7.3 100830 84
2002-11-20 08:35:54 51°22.458 3°7.856 13.4 211 7.3 100840 85
2002-11-20 08:35:58 51°22.462 3°7.877 14.1 206 7.3 100840 85
2002-11-20 08:36:03 51°22.467 3°7.904 13 206 7.3 100840 85
2002-11-20 08:36:08 51°22.473 3°7.931 13.6 207 7.3 100840 85
2002-11-20 08:36:14 51°22.479 3°7.964 14 206 7.3 100830 84
2002-11-20 08:36:19 51°22.484 3°7.991 12.9 203 7.3 100830 84
2002-11-20 08:36:23 51°22.489 3°8.013 14.1 209 7.3 100830 85
2002-11-20 08:36:28 51°22.494 3°8.039 14 207 7.3 100830 85
2002-11-20 08:36:32 51°22.499 3°8.061 14.7 209 7.3 100840 85
2002-11-20 08:36:38 51°22.505 3°8.094 14.1 202 7.3 100840 85
2002-11-20 08:36:43 51°22.51 3°8.121 13.1 204 7.3 100840 85
2002-11-20 08:36:48 51°22.515 3°8.148 13.4 207 7.3 100840 85
2002-11-20 08:36:53 51°22.521 3°8.175 13.4 205 7.3 100830 85
2002-11-20 08:36:58 51°22.526 3°8.202 14.3 203 7.3 100830 85
2002-11-20 08:37:03 51°22.531 3°8.229 13.2 204 7.3 100820 84
2002-11-20 08:37:08 51°22.536 3°8.256 13.8 207 7.3 100820 84
2002-11-20 08:37:14 51°22.543 3°8.289 13.2 210 7.3 100840 84
2002-11-20 08:37:18 51°22.547 3°8.311 14.8 209 7.3 100840 84
2002-11-20 08:37:23 51°22.552 3°8.338 14.4 208 7.3 100830 84
2002-11-20 08:37:28 51°22.558 3°8.365 14.8 205 7.3 100830 84
2002-11-20 08:37:34 51°22.564 3°8.397 15 207 7.2 100840 84
2002-11-20 08:37:39 51°22.569 3°8.425 14.5 207 7.2 100840 84
2002-11-20 08:37:43 51°22.574 3°8.447 14.3 206 7.3 100840 84
2002-11-20 08:37:48 51°22.579 3°8.474 13.4 210 7.3 100840 84
2002-11-20 08:37:52 51°22.584 3°8.496 13.6 206 7.3 100830 84
2002-11-20 08:37:59 51°22.591 3°8.534 14.8 210 7.3 100830 84
2002-11-20 08:38:04 51°22.596 3°8.562 14.2 207 7.2 100830 84
2002-11-20 08:38:08 51°22.6 3°8.584 14 203 7.2 100830 84
2002-11-20 08:38:14 51°22.607 3°8.616 12.9 201 7.3 100840 85
2002-11-20 08:38:19 51°22.612 3°8.644 13.5 209 7.3 100840 85
2002-11-20 08:38:24 51°22.617 3°8.671 14.4 208 7.3 100840 85
2002-11-20 08:38:28 51°22.622 3°8.693 14.9 212 7.3 100840 85
2002-11-20 08:38:32 51°22.626 3°8.715 15 209 7.2 100830 84
2002-11-20 08:38:38 51°22.632 3°8.748 13.5 203 7.2 100830 84
2002-11-20 08:38:43 51°22.638 3°8.776 14.7 206 7.2 100840 84
2002-11-20 08:38:48 51°22.643 3°8.803 13.6 203 7.2 100840 84
2002-11-20 08:38:53 51°22.648 3°8.831 13.5 202 7.2 100840 85
2002-11-20 08:38:58 51°22.653 3°8.858 12.6 204 7.2 100840 85
2002-11-20 08:39:03 51°22.659 3°8.885 13.7 201 7.3 100830 85
2002-11-20 08:39:08 51°22.664 3°8.913 13.9 206 7.3 100830 85
2002-11-20 08:39:12 51°22.668 3°8.935 13.2 206 7.2 100830 84
2002-11-20 08:39:19 51°22.675 3°8.973 13.7 207 7.2 100830 84
2002-11-20 08:39:24 51°22.68 3°9 12.3 202 7.2 100830 84
2002-11-20 08:39:28 51°22.684 3°9.02 12 204 7.2 100830 84
2002-11-20 08:39:32 51°22.687 3°9.039 12.5 204 7.3 100840 85
2002-11-20 08:39:39 51°22.691 3°9.07 11.5 206 7.3 100840 85
2002-11-20 08:39:44 51°22.693 3°9.09 12.2 201 7.3 100840 85
2002-11-20 08:39:48 51°22.695 3°9.106 11 203 7.3 100840 85
2002-11-20 08:39:52 51°22.696 3°9.12 11.2 203 7.3 100840 85
2002-11-20 08:39:59 51°22.697 3°9.144 10.7 208 7.3 100840 85
2002-11-20 08:40:03 51°22.697 3°9.156 10.4 209 7.3 100850 85
2002-11-20 08:40:08 51°22.697 3°9.17 10.5 208 7.3 100850 85
2002-11-20 08:40:12 51°22.697 3°9.181 9.8 206 7.3 100840 85
2002-11-20 08:40:18 51°22.695 3°9.196 10.1 209 7.3 100840 85
2002-11-20 08:40:23 51°22.695 3°9.208 10.8 214 7.3 100850 85
2002-11-20 08:40:28 51°22.693 3°9.219 11.5 214 7.3 100850 85
2002-11-20 08:40:33 51°22.692 3°9.229 11.2 215 7.3 100850 85
2002-11-20 08:40:38 51°22.69 3°9.239 9.6 215 7.3 100850 85
2002-11-20 08:40:43 51°22.689 3°9.248 9.6 217 7.3 100850 85
2002-11-20 08:40:48 51°22.688 3°9.257 10.6 216 7.3 100850 85
2002-11-20 08:40:54 51°22.686 3°9.267 10.8 210 7.4 100860 85
2002-11-20 08:40:58 51°22.685 3°9.273 9.3 213 7.4 100860 85
2002-11-20 08:41:03 51°22.684 3°9.28 9.4 216 7.4 100860 85
2002-11-20 08:41:08 51°22.683 3°9.286 9.4 211 7.4 100860 85
2002-11-20 08:41:14 51°22.681 3°9.294 9.3 210 7.3 100850 85
2002-11-20 08:41:19 51°22.68 3°9.3 9.9 205 7.3 100850 85
2002-11-20 08:41:23 51°22.679 3°9.304 9.4 207 7.3 100860 85
2002-11-20 08:41:28 51°22.678 3°9.309 9.2 208 7.3 100860 85
2002-11-20 08:41:32 51°22.678 3°9.314 9.4 206 7.3 100850 85
2002-11-20 08:41:38 51°22.677 3°9.32 9.3 206 7.3 100850 85
2002-11-20 08:41:44 51°22.677 3°9.325 8.6 201 7.3 100850 85
2002-11-20 08:41:48 51°22.676 3°9.329 7.8 202 7.3 100850 85
2002-11-20 08:41:54 51°22.676 3°9.333 8 199 7.3 100850 85
2002-11-20 08:41:58 51°22.676 3°9.336 8 194 7.3 100850 85
2002-11-20 08:42:03 51°22.675 3°9.339 7.8 193 7.3 100860 85
2002-11-20 08:42:08 51°22.675 3°9.342 8.5 196 7.3 100860 85
2002-11-20 08:42:14 51°22.675 3°9.346 8 194 7.2 100850 84
2002-11-20 08:42:19 51°22.675 3°9.349 7 190 7.2 100850 84
2002-11-20 08:42:23 51°22.675 3°9.351 7.6 189 7.2 100860 84
2002-11-20 08:42:28 51°22.675 3°9.354 6.6 185 7.2 100860 84
2002-11-20 08:42:32 51°22.675 3°9.355 6.6 182 7.2 100860 84
2002-11-20 08:42:39 51°22.675 3°9.359 7.8 179 7.2 100860 84
2002-11-20 08:42:43 51°22.675 3°9.361 7.8 177 7.2 100850 85
2002-11-20 08:42:48 51°22.675 3°9.363 8.3 179 7.2 100850 85
2002-11-20 08:42:53 51°22.675 3°9.365 6.7 176 7.2 100850 85
2002-11-20 08:42:58 51°22.676 3°9.367 7.5 179 7.2 100850 85
2002-11-20 08:43:03 51°22.676 3°9.369 8.4 179 7.2 100850 84
2002-11-20 08:43:08 51°22.677 3°9.371 6.4 186 7.2 100850 84
2002-11-20 08:43:14 51°22.677 3°9.373 6.1 183 7.2 100850 84
2002-11-20 08:43:18 51°22.677 3°9.375 7.6 182 7.2 100850 84
2002-11-20 08:43:23 51°22.677 3°9.376 6.4 183 7.2 100850 84
2002-11-20 08:43:28 51°22.677 3°9.378 6.7 183 7.2 100850 84
2002-11-20 08:43:34 51°22.678 3°9.38 7.6 178 7.2 100850 84
2002-11-20 08:43:39 51°22.678 3°9.381 6.4 186 7.2 100850 84
2002-11-20 08:43:43 51°22.678 3°9.382 6.7 183 7.2 100860 85
2002-11-20 08:43:48 51°22.679 3°9.383 6.4 176 7.2 100860 85
2002-11-20 08:43:52 51°22.679 3°9.384 6.9 169 7.2 100850 85
2002-11-20 08:43:59 51°22.679 3°9.386 6 184 7.2 100850 85
2002-11-20 08:44:04 51°22.679 3°9.387 6.2 181 7.2 100860 85
2002-11-20 08:44:08 51°22.68 3°9.388 6.6 188 7.2 100860 85
2002-11-20 08:44:14 51°22.68 3°9.389 6.5 184 7.3 100850 85
2002-11-20 08:44:19 51°22.681 3°9.39 6.8 189 7.3 100850 85
2002-11-20 08:44:24 51°22.681 3°9.391 7 181 7.3 100860 85
2002-11-20 08:44:28 51°22.681 3°9.391 6.1 194 7.3 100860 85
2002-11-20 08:44:32 51°22.682 3°9.392 5.1 179 7.3 100860 85
2002-11-20 08:44:39 51°22.683 3°9.392 6.4 184 7.3 100860 85
2002-11-20 08:44:43 51°22.683 3°9.393 5.9 193 7.2 100850 85
2002-11-20 08:44:48 51°22.683 3°9.393 6.8 171 7.2 100850 85
2002-11-20 08:44:54 51°22.685 3°9.394 6.4 163 7.2 100850 85
2002-11-20 08:44:59 51°22.685 3°9.395 7.3 180 7.2 100850 85
2002-11-20 08:45:04 51°22.686 3°9.395 6.6 179 7.2 100860 85
2002-11-20 08:45:08 51°22.686 3°9.395 6.6 165 7.2 100860 85
2002-11-20 08:45:14 51°22.687 3°9.396 6.1 166 7.2 100860 85
2002-11-20 08:45:18 51°22.687 3°9.396 7.4 160 7.2 100860 85
2002-11-20 08:45:23 51°22.688 3°9.396 7.3 159 7.3 100860 85
2002-11-20 08:45:28 51°22.689 3°9.397 7.3 159 7.3 100860 85
2002-11-20 08:45:34 51°22.689 3°9.397 7.6 153 7.3 100850 85
2002-11-20 08:45:39 51°22.69 3°9.397 7.4 159 7.3 100850 85
2002-11-20 08:45:43 51°22.691 3°9.398 8.8 161 7.3 100850 85
2002-11-20 08:45:48 51°22.692 3°9.399 7.4 157 7.3 100850 85
2002-11-20 08:45:53 51°22.693 3°9.4 8.2 158 7.3 100850 85
2002-11-20 08:45:59 51°22.694 3°9.401 8.1 160 7.3 100850 85
2002-11-20 08:46:04 51°22.695 3°9.401 8.4 158 7.3 100850 85
2002-11-20 08:46:08 51°22.695 3°9.402 7.3 167 7.3 100850 85
2002-11-20 08:46:14 51°22.697 3°9.403 7.8 162 7.2 100860 85
2002-11-20 08:46:19 51°22.697 3°9.404 8.1 169 7.2 100860 85
2002-11-20 08:46:23 51°22.698 3°9.406 6.8 178 7.2 100860 84
2002-11-20 08:46:28 51°22.699 3°9.408 7.1 178 7.2 100860 84
2002-11-20 08:46:32 51°22.699 3°9.41 7.5 183 7.2 100860 84
2002-11-20 08:46:38 51°22.7 3°9.413 7.7 182 7.2 100860 84
2002-11-20 08:46:44 51°22.7 3°9.416 7.3 178 7.2 100860 85
2002-11-20 08:46:48 51°22.701 3°9.417 6.7 190 7.2 100860 85
2002-11-20 08:46:52 51°22.701 3°9.419 6.2 181 7.3 100860 85
2002-11-20 08:46:58 51°22.701 3°9.42 7 183 7.3 100860 85
2002-11-20 08:47:03 51°22.701 3°9.42 6.1 182 7.3 100860 85
2002-11-20 08:47:08 51°22.701 3°9.419 6.6 183 7.3 100860 85
2002-11-20 08:47:12 51°22.701 3°9.418 5.6 182 7.3 100850 85
2002-11-20 08:47:18 51°22.701 3°9.416 6 184 7.3 100850 85
2002-11-20 08:47:23 51°22.701 3°9.415 6 184 7.2 100860 85
2002-11-20 08:47:28 51°22.701 3°9.414 8.4 177 7.2 100860 85
2002-11-20 08:47:33 51°22.701 3°9.414 7.7 179 7.2 100860 85
2002-11-20 08:47:38 51°22.701 3°9.416 7.2 196 7.2 100860 85
2002-11-20 08:47:43 51°22.7 3°9.418 6.4 195 7.2 100860 85